sensor_id;sensor_type;location;lat;lon;timestamp;pressure;altitude;pressure_sealevel;temperature;humidity
79309;BME280;68767;53.078;7.386;2024-01-11T00:02:10;103741.00;;;-6.36;100.00
79309;BME280;68767;53.078;7.386;2024-01-11T00:04:37;103750.09;;;-6.30;100.00
79309;BME280;68767;53.078;7.386;2024-01-11T00:07:07;103750.09;;;-6.30;100.00
79309;BME280;68767;53.078;7.386;2024-01-11T00:09:42;103750.66;;;-6.36;100.00
79309;BME280;68767;53.078;7.386;2024-01-11T00:12:12;103756.41;;;-6.42;100.00
79309;BME280;68767;53.078;7.386;2024-01-11T00:14:44;103754.19;;;-6.37;100.00
79309;BME280;68767;53.078;7.386;2024-01-11T00:17:11;103759.31;;;-6.36;100.00
79309;BME280;68767;53.078;7.386;2024-01-11T00:19:38;103750.34;;;-6.43;100.00
79309;BME280;68767;53.078;7.386;2024-01-11T00:22:07;103752.97;;;-6.33;100.00
79309;BME280;68767;53.078;7.386;2024-01-11T00:24:34;103758.06;;;-6.32;100.00
79309;BME280;68767;53.078;7.386;2024-01-11T00:27:07;103766.34;;;-6.36;100.00
79309;BME280;68767;53.078;7.386;2024-01-11T00:29:37;103759.41;;;-6.37;100.00
79309;BME280;68767;53.078;7.386;2024-01-11T00:32:04;103751.84;;;-6.40;100.00
79309;BME280;68767;53.078;7.386;2024-01-11T00:34:32;103746.78;;;-6.32;100.00
79309;BME280;68767;53.078;7.386;2024-01-11T00:36:59;103753.50;;;-6.39;100.00
79309;BME280;68767;53.078;7.386;2024-01-11T00:39:26;103760.53;;;-6.40;100.00
79309;BME280;68767;53.078;7.386;2024-01-11T00:41:53;103767.56;;;-6.31;100.00
79309;BME280;68767;53.078;7.386;2024-01-11T00:44:20;103766.19;;;-6.35;100.00
79309;BME280;68767;53.078;7.386;2024-01-11T00:46:48;103763.44;;;-6.33;100.00
79309;BME280;68767;53.078;7.386;2024-01-11T00:49:15;103755.16;;;-6.38;100.00
79309;BME280;68767;53.078;7.386;2024-01-11T00:51:42;103749.81;;;-6.37;100.00
79309;BME280;68767;53.078;7.386;2024-01-11T00:54:09;103749.47;;;-6.53;100.00
79309;BME280;68767;53.078;7.386;2024-01-11T00:56:36;103745.63;;;-6.49;100.00
79309;BME280;68767;53.078;7.386;2024-01-11T00:59:03;103746.47;;;-6.39;100.00
79309;BME280;68767;53.078;7.386;2024-01-11T01:01:31;103735.88;;;-6.37;100.00
79309;BME280;68767;53.078;7.386;2024-01-11T01:03:58;103738.63;;;-6.39;100.00
79309;BME280;68767;53.078;7.386;2024-01-11T01:06:25;103735.63;;;-6.44;100.00
79309;BME280;68767;53.078;7.386;2024-01-11T01:08:54;103729.38;;;-6.53;100.00
79309;BME280;68767;53.078;7.386;2024-01-11T01:11:21;103742.88;;;-6.47;100.00
79309;BME280;68767;53.078;7.386;2024-01-11T01:13:48;103747.41;;;-6.49;100.00
79309;BME280;68767;53.078;7.386;2024-01-11T01:16:15;103744.81;;;-6.49;100.00
79309;BME280;68767;53.078;7.386;2024-01-11T01:18:43;103726.63;;;-6.51;100.00
79309;BME280;68767;53.078;7.386;2024-01-11T01:21:11;103733.22;;;-6.57;100.00
79309;BME280;68767;53.078;7.386;2024-01-11T01:23:38;103725.81;;;-6.52;100.00
79309;BME280;68767;53.078;7.386;2024-01-11T01:26:06;103716.47;;;-6.44;100.00
79309;BME280;68767;53.078;7.386;2024-01-11T01:28:33;103724.69;;;-6.59;100.00
79309;BME280;68767;53.078;7.386;2024-01-11T01:31:00;103723.84;;;-6.59;100.00
79309;BME280;68767;53.078;7.386;2024-01-11T01:33:27;103723.81;;;-6.69;100.00
79309;BME280;68767;53.078;7.386;2024-01-11T01:35:55;103724.09;;;-6.62;100.00
79309;BME280;68767;53.078;7.386;2024-01-11T01:38:22;103724.81;;;-6.60;100.00
79309;BME280;68767;53.078;7.386;2024-01-11T01:40:49;103710.91;;;-6.61;100.00
79309;BME280;68767;53.078;7.386;2024-01-11T01:43:16;103715.03;;;-6.58;100.00
79309;BME280;68767;53.078;7.386;2024-01-11T01:45:43;103722.19;;;-6.60;100.00
79309;BME280;68767;53.078;7.386;2024-01-11T01:48:10;103712.28;;;-6.57;100.00
79309;BME280;68767;53.078;7.386;2024-01-11T01:50:37;103710.66;;;-6.58;100.00
79309;BME280;68767;53.078;7.386;2024-01-11T01:53:05;103720.94;;;-6.66;100.00
79309;BME280;68767;53.078;7.386;2024-01-11T01:55:32;103711.31;;;-6.65;100.00
79309;BME280;68767;53.078;7.386;2024-01-11T01:58:03;103700.41;;;-6.70;100.00
79309;BME280;68767;53.078;7.386;2024-01-11T02:00:30;103704.75;;;-6.81;100.00
79309;BME280;68767;53.078;7.386;2024-01-11T02:02:58;103703.28;;;-6.73;100.00
79309;BME280;68767;53.078;7.386;2024-01-11T02:05:27;103697.91;;;-6.72;100.00
79309;BME280;68767;53.078;7.386;2024-01-11T02:08:00;103707.56;;;-6.72;100.00
79309;BME280;68767;53.078;7.386;2024-01-11T02:10:28;103712.25;;;-6.66;100.00
79309;BME280;68767;53.078;7.386;2024-01-11T02:12:55;103711.88;;;-6.62;100.00
79309;BME280;68767;53.078;7.386;2024-01-11T02:15:25;103718.63;;;-6.59;100.00
79309;BME280;68767;53.078;7.386;2024-01-11T02:17:52;103709.28;;;-6.62;100.00
79309;BME280;68767;53.078;7.386;2024-01-11T02:20:19;103715.16;;;-6.69;100.00
79309;BME280;68767;53.078;7.386;2024-01-11T02:22:52;103705.72;;;-6.82;100.00
79309;BME280;68767;53.078;7.386;2024-01-11T02:25:22;103701.19;;;-6.80;100.00
79309;BME280;68767;53.078;7.386;2024-01-11T02:27:50;103704.34;;;-6.86;100.00
79309;BME280;68767;53.078;7.386;2024-01-11T02:30:18;103712.09;;;-6.95;100.00
79309;BME280;68767;53.078;7.386;2024-01-11T02:32:50;103707.44;;;-7.01;100.00
79309;BME280;68767;53.078;7.386;2024-01-11T02:35:18;103714.16;;;-6.99;100.00
79309;BME280;68767;53.078;7.386;2024-01-11T02:37:46;103714.72;;;-6.95;100.00
79309;BME280;68767;53.078;7.386;2024-01-11T02:40:13;103705.41;;;-6.88;100.00
79309;BME280;68767;53.078;7.386;2024-01-11T02:42:41;103698.53;;;-6.89;100.00
79309;BME280;68767;53.078;7.386;2024-01-11T02:45:11;103700.00;;;-6.96;100.00
79309;BME280;68767;53.078;7.386;2024-01-11T02:47:39;103703.41;;;-7.05;100.00
79309;BME280;68767;53.078;7.386;2024-01-11T02:50:07;103705.44;;;-7.09;100.00
79309;BME280;68767;53.078;7.386;2024-01-11T02:52:38;103721.63;;;-6.94;100.00
79309;BME280;68767;53.078;7.386;2024-01-11T02:55:05;103707.75;;;-6.95;100.00
79309;BME280;68767;53.078;7.386;2024-01-11T02:57:32;103721.72;;;-6.96;100.00
79309;BME280;68767;53.078;7.386;2024-01-11T02:59:59;103718.75;;;-6.91;100.00
79309;BME280;68767;53.078;7.386;2024-01-11T03:02:26;103723.16;;;-6.92;100.00
79309;BME280;68767;53.078;7.386;2024-01-11T03:04:53;103725.06;;;-6.94;100.00
79309;BME280;68767;53.078;7.386;2024-01-11T03:07:20;103728.50;;;-6.93;100.00
79309;BME280;68767;53.078;7.386;2024-01-11T03:09:47;103729.56;;;-6.96;100.00
79309;BME280;68767;53.078;7.386;2024-01-11T03:12:14;103725.06;;;-6.94;100.00
79309;BME280;68767;53.078;7.386;2024-01-11T03:14:41;103726.06;;;-6.85;100.00
79309;BME280;68767;53.078;7.386;2024-01-11T03:17:08;103724.25;;;-6.94;100.00
79309;BME280;68767;53.078;7.386;2024-01-11T03:19:39;103717.50;;;-6.87;100.00
79309;BME280;68767;53.078;7.386;2024-01-11T03:22:07;103722.06;;;-6.89;100.00
79309;BME280;68767;53.078;7.386;2024-01-11T03:24:38;103722.88;;;-6.89;100.00
79309;BME280;68767;53.078;7.386;2024-01-11T03:27:06;103721.72;;;-6.96;100.00
79309;BME280;68767;53.078;7.386;2024-01-11T03:29:33;103719.03;;;-6.94;100.00
79309;BME280;68767;53.078;7.386;2024-01-11T03:32:00;103700.78;;;-6.85;100.00
79309;BME280;68767;53.078;7.386;2024-01-11T03:34:27;103699.94;;;-6.85;100.00
79309;BME280;68767;53.078;7.386;2024-01-11T03:36:54;103710.09;;;-6.92;100.00
79309;BME280;68767;53.078;7.386;2024-01-11T03:39:21;103711.41;;;-6.97;100.00
79309;BME280;68767;53.078;7.386;2024-01-11T03:41:48;103711.19;;;-6.94;100.00
79309;BME280;68767;53.078;7.386;2024-01-11T03:44:15;103708.03;;;-6.88;100.00
79309;BME280;68767;53.078;7.386;2024-01-11T03:46:43;103708.84;;;-6.88;100.00
79309;BME280;68767;53.078;7.386;2024-01-11T03:49:10;103717.41;;;-6.86;100.00
79309;BME280;68767;53.078;7.386;2024-01-11T03:51:37;103707.47;;;-6.92;100.00
79309;BME280;68767;53.078;7.386;2024-01-11T03:54:04;103705.31;;;-6.87;100.00
79309;BME280;68767;53.078;7.386;2024-01-11T03:56:31;103706.97;;;-6.86;100.00
79309;BME280;68767;53.078;7.386;2024-01-11T03:58:58;103692.44;;;-6.69;100.00
79309;BME280;68767;53.078;7.386;2024-01-11T04:01:25;103703.88;;;-6.70;100.00
79309;BME280;68767;53.078;7.386;2024-01-11T04:03:52;103705.38;;;-6.67;100.00
79309;BME280;68767;53.078;7.386;2024-01-11T04:06:22;103701.81;;;-6.66;100.00
79309;BME280;68767;53.078;7.386;2024-01-11T04:08:51;103711.72;;;-6.70;100.00
79309;BME280;68767;53.078;7.386;2024-01-11T04:11:18;103714.75;;;-6.65;100.00
79309;BME280;68767;53.078;7.386;2024-01-11T04:13:45;103705.94;;;-6.64;100.00
79309;BME280;68767;53.078;7.386;2024-01-11T04:16:12;103707.66;;;-6.53;100.00
79309;BME280;68767;53.078;7.386;2024-01-11T04:18:39;103710.84;;;-6.40;100.00
79309;BME280;68767;53.078;7.386;2024-01-11T04:21:06;103711.56;;;-6.28;100.00
79309;BME280;68767;53.078;7.386;2024-01-11T04:23:33;103711.88;;;-6.12;100.00
79309;BME280;68767;53.078;7.386;2024-01-11T04:26:01;103716.69;;;-6.07;100.00
79309;BME280;68767;53.078;7.386;2024-01-11T04:28:27;103711.22;;;-5.95;100.00
79309;BME280;68767;53.078;7.386;2024-01-11T04:30:54;103720.72;;;-5.93;100.00
79309;BME280;68767;53.078;7.386;2024-01-11T04:33:21;103716.16;;;-5.91;100.00
79309;BME280;68767;53.078;7.386;2024-01-11T04:35:49;103721.66;;;-5.75;100.00
79309;BME280;68767;53.078;7.386;2024-01-11T04:38:16;103730.34;;;-5.75;100.00
79309;BME280;68767;53.078;7.386;2024-01-11T04:40:42;103731.16;;;-5.74;100.00
79309;BME280;68767;53.078;7.386;2024-01-11T04:43:09;103733.25;;;-5.58;100.00
79309;BME280;68767;53.078;7.386;2024-01-11T04:45:37;103752.69;;;-5.51;100.00
79309;BME280;68767;53.078;7.386;2024-01-11T04:48:04;103756.28;;;-5.52;100.00
79309;BME280;68767;53.078;7.386;2024-01-11T04:50:31;103763.28;;;-5.43;100.00
79309;BME280;68767;53.078;7.386;2024-01-11T04:52:58;103758.44;;;-5.38;100.00
79309;BME280;68767;53.078;7.386;2024-01-11T04:55:28;103763.97;;;-5.22;100.00
79309;BME280;68767;53.078;7.386;2024-01-11T04:57:55;103766.72;;;-5.14;100.00
79309;BME280;68767;53.078;7.386;2024-01-11T05:00:21;103773.03;;;-5.06;100.00
79309;BME280;68767;53.078;7.386;2024-01-11T05:02:48;103766.97;;;-5.07;100.00
79309;BME280;68767;53.078;7.386;2024-01-11T05:05:15;103763.25;;;-4.95;100.00
79309;BME280;68767;53.078;7.386;2024-01-11T05:07:43;103771.78;;;-4.93;100.00
79309;BME280;68767;53.078;7.386;2024-01-11T05:10:10;103780.91;;;-4.87;100.00
79309;BME280;68767;53.078;7.386;2024-01-11T05:12:37;103780.31;;;-4.81;100.00
79309;BME280;68767;53.078;7.386;2024-01-11T05:15:08;103771.72;;;-4.73;100.00
79309;BME280;68767;53.078;7.386;2024-01-11T05:17:35;103765.09;;;-4.68;100.00
79309;BME280;68767;53.078;7.386;2024-01-11T05:20:02;103756.22;;;-4.57;100.00
79309;BME280;68767;53.078;7.386;2024-01-11T05:22:29;103745.88;;;-4.59;100.00
79309;BME280;68767;53.078;7.386;2024-01-11T05:24:56;103752.88;;;-4.49;100.00
79309;BME280;68767;53.078;7.386;2024-01-11T05:27:23;103770.00;;;-4.55;100.00
79309;BME280;68767;53.078;7.386;2024-01-11T05:29:50;103770.72;;;-4.53;100.00
79309;BME280;68767;53.078;7.386;2024-01-11T05:32:17;103764.44;;;-4.42;100.00
79309;BME280;68767;53.078;7.386;2024-01-11T05:34:44;103761.97;;;-4.44;100.00
79309;BME280;68767;53.078;7.386;2024-01-11T05:37:12;103755.19;;;-4.37;100.00
79309;BME280;68767;53.078;7.386;2024-01-11T05:39:38;103738.16;;;-4.33;100.00
79309;BME280;68767;53.078;7.386;2024-01-11T05:42:06;103743.00;;;-4.28;100.00
79309;BME280;68767;53.078;7.386;2024-01-11T05:44:33;103727.75;;;-4.25;100.00
79309;BME280;68767;53.078;7.386;2024-01-11T05:47:00;103725.44;;;-4.28;100.00
79309;BME280;68767;53.078;7.386;2024-01-11T05:49:27;103712.91;;;-4.34;100.00
79309;BME280;68767;53.078;7.386;2024-01-11T05:51:54;103716.34;;;-4.33;100.00
79309;BME280;68767;53.078;7.386;2024-01-11T05:54:21;103717.31;;;-4.34;100.00
79309;BME280;68767;53.078;7.386;2024-01-11T05:56:48;103719.78;;;-4.33;100.00
79309;BME280;68767;53.078;7.386;2024-01-11T05:59:16;103733.91;;;-4.34;100.00
79309;BME280;68767;53.078;7.386;2024-01-11T06:01:43;103735.53;;;-4.33;100.00
79309;BME280;68767;53.078;7.386;2024-01-11T06:04:10;103728.06;;;-4.28;100.00
79309;BME280;68767;53.078;7.386;2024-01-11T06:06:37;103717.09;;;-4.13;100.00
79309;BME280;68767;53.078;7.386;2024-01-11T06:09:04;103714.88;;;-4.18;100.00
79309;BME280;68767;53.078;7.386;2024-01-11T06:11:31;103706.44;;;-4.12;100.00
79309;BME280;68767;53.078;7.386;2024-01-11T06:13:58;103702.09;;;-4.03;100.00
79309;BME280;68767;53.078;7.386;2024-01-11T06:16:27;103703.06;;;-4.04;100.00
79309;BME280;68767;53.078;7.386;2024-01-11T06:18:54;103696.28;;;-4.07;100.00
79309;BME280;68767;53.078;7.386;2024-01-11T06:21:21;103693.06;;;-4.01;100.00
79309;BME280;68767;53.078;7.386;2024-01-11T06:23:48;103697.28;;;-4.08;100.00
79309;BME280;68767;53.078;7.386;2024-01-11T06:26:15;103705.00;;;-4.06;100.00
79309;BME280;68767;53.078;7.386;2024-01-11T06:28:42;103714.47;;;-3.96;100.00
79309;BME280;68767;53.078;7.386;2024-01-11T06:31:10;103701.72;;;-3.90;100.00
79309;BME280;68767;53.078;7.386;2024-01-11T06:33:37;103693.91;;;-3.82;100.00
79309;BME280;68767;53.078;7.386;2024-01-11T06:36:05;103691.66;;;-3.77;100.00
79309;BME280;68767;53.078;7.386;2024-01-11T06:38:33;103676.41;;;-3.74;100.00
79309;BME280;68767;53.078;7.386;2024-01-11T06:41:00;103678.22;;;-3.74;100.00
79309;BME280;68767;53.078;7.386;2024-01-11T06:43:27;103688.22;;;-3.78;100.00
79309;BME280;68767;53.078;7.386;2024-01-11T06:45:54;103691.81;;;-3.79;100.00
79309;BME280;68767;53.078;7.386;2024-01-11T06:48:21;103689.94;;;-3.69;100.00
79309;BME280;68767;53.078;7.386;2024-01-11T06:50:51;103683.84;;;-3.69;100.00
79309;BME280;68767;53.078;7.386;2024-01-11T06:53:18;103682.63;;;-3.57;100.00
79309;BME280;68767;53.078;7.386;2024-01-11T06:55:45;103689.53;;;-3.56;100.00
79309;BME280;68767;53.078;7.386;2024-01-11T06:58:16;103701.16;;;-3.58;100.00
79309;BME280;68767;53.078;7.386;2024-01-11T07:00:42;103712.34;;;-3.56;100.00
79309;BME280;68767;53.078;7.386;2024-01-11T07:03:11;103732.69;;;-3.58;100.00
79309;BME280;68767;53.078;7.386;2024-01-11T07:05:38;103737.88;;;-3.49;100.00
79309;BME280;68767;53.078;7.386;2024-01-11T07:08:06;103734.81;;;-3.44;100.00
79309;BME280;68767;53.078;7.386;2024-01-11T07:10:33;103731.19;;;-3.43;100.00
79309;BME280;68767;53.078;7.386;2024-01-11T07:13:01;103731.69;;;-3.40;100.00
79309;BME280;68767;53.078;7.386;2024-01-11T07:15:28;103738.31;;;-3.35;100.00
79309;BME280;68767;53.078;7.386;2024-01-11T07:17:55;103733.88;;;-3.35;100.00
79309;BME280;68767;53.078;7.386;2024-01-11T07:20:22;103730.66;;;-3.29;100.00
79309;BME280;68767;53.078;7.386;2024-01-11T07:22:49;103734.31;;;-3.22;100.00
79309;BME280;68767;53.078;7.386;2024-01-11T07:25:16;103728.59;;;-3.17;100.00
79309;BME280;68767;53.078;7.386;2024-01-11T07:27:43;103722.41;;;-3.08;100.00
79309;BME280;68767;53.078;7.386;2024-01-11T07:30:11;103720.59;;;-3.07;100.00
79309;BME280;68767;53.078;7.386;2024-01-11T07:32:38;103718.78;;;-3.07;100.00
79309;BME280;68767;53.078;7.386;2024-01-11T07:35:06;103735.88;;;-3.11;100.00
79309;BME280;68767;53.078;7.386;2024-01-11T07:37:40;103733.47;;;-3.04;100.00
79309;BME280;68767;53.078;7.386;2024-01-11T07:40:07;103724.63;;;-2.95;100.00
79309;BME280;68767;53.078;7.386;2024-01-11T07:42:38;103729.22;;;-2.97;100.00
79309;BME280;68767;53.078;7.386;2024-01-11T07:45:06;103724.25;;;-3.00;100.00
79309;BME280;68767;53.078;7.386;2024-01-11T07:47:34;103720.00;;;-3.01;100.00
79309;BME280;68767;53.078;7.386;2024-01-11T07:50:01;103717.53;;;-3.03;100.00
79309;BME280;68767;53.078;7.386;2024-01-11T07:52:28;103725.41;;;-3.03;100.00
79309;BME280;68767;53.078;7.386;2024-01-11T07:54:55;103721.47;;;-2.99;100.00
79309;BME280;68767;53.078;7.386;2024-01-11T07:57:22;103723.81;;;-2.96;100.00
79309;BME280;68767;53.078;7.386;2024-01-11T07:59:50;103735.38;;;-2.89;100.00
79309;BME280;68767;53.078;7.386;2024-01-11T08:02:17;103735.53;;;-2.82;100.00
79309;BME280;68767;53.078;7.386;2024-01-11T08:04:44;103735.31;;;-2.71;100.00
79309;BME280;68767;53.078;7.386;2024-01-11T08:07:12;103722.31;;;-2.72;100.00
79309;BME280;68767;53.078;7.386;2024-01-11T08:09:39;103717.88;;;-2.72;100.00
79309;BME280;68767;53.078;7.386;2024-01-11T08:12:12;103725.59;;;-2.70;100.00
79309;BME280;68767;53.078;7.386;2024-01-11T08:14:40;103724.97;;;-2.64;100.00
79309;BME280;68767;53.078;7.386;2024-01-11T08:17:09;103730.38;;;-2.66;100.00
79309;BME280;68767;53.078;7.386;2024-01-11T08:19:36;103734.56;;;-2.55;100.00
79309;BME280;68767;53.078;7.386;2024-01-11T08:22:03;103731.44;;;-2.50;100.00
79309;BME280;68767;53.078;7.386;2024-01-11T08:24:29;103728.19;;;-2.44;100.00
79309;BME280;68767;53.078;7.386;2024-01-11T08:26:57;103723.13;;;-2.38;100.00
79309;BME280;68767;53.078;7.386;2024-01-11T08:29:24;103725.25;;;-2.33;100.00
79309;BME280;68767;53.078;7.386;2024-01-11T08:31:51;103722.31;;;-2.30;100.00
79309;BME280;68767;53.078;7.386;2024-01-11T08:34:18;103729.72;;;-2.26;100.00
79309;BME280;68767;53.078;7.386;2024-01-11T08:36:45;103737.31;;;-2.22;100.00
79309;BME280;68767;53.078;7.386;2024-01-11T08:39:13;103748.16;;;-2.26;100.00
79309;BME280;68767;53.078;7.386;2024-01-11T08:41:41;103752.13;;;-2.21;100.00
79309;BME280;68767;53.078;7.386;2024-01-11T08:44:09;103756.59;;;-2.14;100.00
79309;BME280;68767;53.078;7.386;2024-01-11T08:46:36;103761.38;;;-2.09;100.00
79309;BME280;68767;53.078;7.386;2024-01-11T08:49:03;103747.75;;;-1.96;100.00
79309;BME280;68767;53.078;7.386;2024-01-11T08:51:31;103747.75;;;-1.96;100.00
79309;BME280;68767;53.078;7.386;2024-01-11T08:53:58;103748.72;;;-2.06;100.00
79309;BME280;68767;53.078;7.386;2024-01-11T08:56:25;103751.53;;;-1.99;100.00
79309;BME280;68767;53.078;7.386;2024-01-11T08:58:52;103750.06;;;-1.93;100.00
79309;BME280;68767;53.078;7.386;2024-01-11T09:01:20;103736.41;;;-1.89;100.00
79309;BME280;68767;53.078;7.386;2024-01-11T09:03:47;103736.56;;;-1.90;100.00
79309;BME280;68767;53.078;7.386;2024-01-11T09:06:15;103730.63;;;-1.92;100.00
79309;BME280;68767;53.078;7.386;2024-01-11T09:08:42;103737.91;;;-1.86;100.00
79309;BME280;68767;53.078;7.386;2024-01-11T09:11:09;103740.38;;;-1.77;100.00
79309;BME280;68767;53.078;7.386;2024-01-11T09:13:37;103749.13;;;-1.68;100.00
79309;BME280;68767;53.078;7.386;2024-01-11T09:16:04;103734.13;;;-1.67;100.00
79309;BME280;68767;53.078;7.386;2024-01-11T09:18:31;103732.31;;;-1.59;100.00
79309;BME280;68767;53.078;7.386;2024-01-11T09:20:58;103734.78;;;-1.57;100.00
79309;BME280;68767;53.078;7.386;2024-01-11T09:23:25;103736.28;;;-1.55;100.00
79309;BME280;68767;53.078;7.386;2024-01-11T09:25:52;103741.06;;;-1.42;100.00
79309;BME280;68767;53.078;7.386;2024-01-11T09:28:19;103736.59;;;-1.42;100.00
79309;BME280;68767;53.078;7.386;2024-01-11T09:30:46;103730.50;;;-1.42;100.00
79309;BME280;68767;53.078;7.386;2024-01-11T09:33:13;103728.38;;;-1.47;100.00
79309;BME280;68767;53.078;7.386;2024-01-11T09:35:41;103734.66;;;-1.39;100.00
79309;BME280;68767;53.078;7.386;2024-01-11T09:38:10;103750.47;;;-1.31;100.00
79309;BME280;68767;53.078;7.386;2024-01-11T09:40:38;103753.94;;;-1.23;100.00
79309;BME280;68767;53.078;7.386;2024-01-11T09:43:06;103763.78;;;-1.08;100.00
79309;BME280;68767;53.078;7.386;2024-01-11T09:45:37;103770.22;;;-1.03;100.00
79309;BME280;68767;53.078;7.386;2024-01-11T09:48:06;103763.75;;;-0.92;100.00
79309;BME280;68767;53.078;7.386;2024-01-11T09:50:33;103760.63;;;-0.88;100.00
79309;BME280;68767;53.078;7.386;2024-01-11T09:53:02;103762.13;;;-0.93;100.00
79309;BME280;68767;53.078;7.386;2024-01-11T09:55:32;103757.34;;;-0.81;100.00
79309;BME280;68767;53.078;7.386;2024-01-11T09:57:59;103758.59;;;-0.69;100.00
79309;BME280;68767;53.078;7.386;2024-01-11T10:00:27;103763.03;;;-0.62;100.00
79309;BME280;68767;53.078;7.386;2024-01-11T10:02:55;103762.69;;;-0.59;100.00
79309;BME280;68767;53.078;7.386;2024-01-11T10:05:22;103768.78;;;-0.58;100.00
79309;BME280;68767;53.078;7.386;2024-01-11T10:07:49;103770.94;;;-0.53;100.00
79309;BME280;68767;53.078;7.386;2024-01-11T10:10:16;103756.94;;;-0.62;100.00
79309;BME280;68767;53.078;7.386;2024-01-11T10:12:43;103751.97;;;-0.57;100.00
79309;BME280;68767;53.078;7.386;2024-01-11T10:15:11;103748.53;;;-0.58;100.00
79309;BME280;68767;53.078;7.386;2024-01-11T10:17:43;103753.09;;;-0.51;100.00
79309;BME280;68767;53.078;7.386;2024-01-11T10:20:14;103748.78;;;-0.44;100.00
79309;BME280;68767;53.078;7.386;2024-01-11T10:22:45;103739.56;;;-0.48;100.00
79309;BME280;68767;53.078;7.386;2024-01-11T10:25:14;103728.47;;;-0.44;100.00
79309;BME280;68767;53.078;7.386;2024-01-11T10:27:43;103715.63;;;-0.47;100.00
79309;BME280;68767;53.078;7.386;2024-01-11T10:30:12;103720.28;;;-0.49;100.00
79309;BME280;68767;53.078;7.386;2024-01-11T10:32:53;103706.28;;;-0.58;100.00
79309;BME280;68767;53.078;7.386;2024-01-11T10:35:20;103715.69;;;-0.63;100.00
79309;BME280;68767;53.078;7.386;2024-01-11T10:37:50;103723.25;;;-0.60;100.00
79309;BME280;68767;53.078;7.386;2024-01-11T10:40:20;103717.47;;;-0.55;100.00
79309;BME280;68767;53.078;7.386;2024-01-11T10:42:51;103724.06;;;-0.51;100.00
79309;BME280;68767;53.078;7.386;2024-01-11T10:45:19;103717.28;;;-0.46;100.00
79309;BME280;68767;53.078;7.386;2024-01-11T10:47:53;103701.41;;;-0.38;100.00
79309;BME280;68767;53.078;7.386;2024-01-11T10:50:22;103703.00;;;-0.29;100.00
79309;BME280;68767;53.078;7.386;2024-01-11T10:55:21;103700.34;;;-0.29;100.00
79309;BME280;68767;53.078;7.386;2024-01-11T10:57:49;103698.03;;;-0.23;100.00
79309;BME280;68767;53.078;7.386;2024-01-11T11:00:18;103699.94;;;-0.17;100.00
79309;BME280;68767;53.078;7.386;2024-01-11T11:02:46;103697.44;;;-0.11;100.00
79309;BME280;68767;53.078;7.386;2024-01-11T11:05:15;103691.28;;;-0.03;100.00
79309;BME280;68767;53.078;7.386;2024-01-11T11:07:43;103684.31;;;0.04;100.00
79309;BME280;68767;53.078;7.386;2024-01-11T11:10:12;103685.06;;;0.13;100.00
79309;BME280;68767;53.078;7.386;2024-01-11T11:12:40;103689.94;;;0.24;100.00
79309;BME280;68767;53.078;7.386;2024-01-11T11:15:09;103689.53;;;0.35;100.00
79309;BME280;68767;53.078;7.386;2024-01-11T11:17:40;103685.00;;;0.44;100.00
79309;BME280;68767;53.078;7.386;2024-01-11T11:20:08;103678.69;;;0.45;100.00
79309;BME280;68767;53.078;7.386;2024-01-11T11:22:40;103678.06;;;0.43;100.00
79309;BME280;68767;53.078;7.386;2024-01-11T11:25:10;103675.81;;;0.32;100.00
79309;BME280;68767;53.078;7.386;2024-01-11T11:27:38;103679.22;;;0.40;100.00
79309;BME280;68767;53.078;7.386;2024-01-11T11:30:05;103681.72;;;0.42;100.00
79309;BME280;68767;53.078;7.386;2024-01-11T11:32:37;103692.38;;;0.48;100.00
79309;BME280;68767;53.078;7.386;2024-01-11T11:35:05;103686.50;;;0.61;100.00
79309;BME280;68767;53.078;7.386;2024-01-11T11:37:33;103684.59;;;0.70;100.00
79309;BME280;68767;53.078;7.386;2024-01-11T11:40:00;103672.81;;;0.72;100.00
79309;BME280;68767;53.078;7.386;2024-01-11T11:42:30;103671.06;;;0.65;100.00
79309;BME280;68767;53.078;7.386;2024-01-11T11:44:57;103673.06;;;0.63;100.00
79309;BME280;68767;53.078;7.386;2024-01-11T11:47:33;103687.13;;;0.63;100.00
79309;BME280;68767;53.078;7.386;2024-01-11T11:50:04;103674.91;;;0.62;100.00
79309;BME280;68767;53.078;7.386;2024-01-11T11:52:33;103668.56;;;0.48;100.00
79309;BME280;68767;53.078;7.386;2024-01-11T11:55:02;103658.44;;;0.37;100.00
79309;BME280;68767;53.078;7.386;2024-01-11T11:57:29;103653.66;;;0.33;100.00
79309;BME280;68767;53.078;7.386;2024-01-11T11:59:57;103651.41;;;0.30;100.00
79309;BME280;68767;53.078;7.386;2024-01-11T12:02:26;103653.66;;;0.33;100.00
79309;BME280;68767;53.078;7.386;2024-01-11T12:04:54;103660.91;;;0.39;100.00
79309;BME280;68767;53.078;7.386;2024-01-11T12:07:22;103654.59;;;0.40;100.00
79309;BME280;68767;53.078;7.386;2024-01-11T12:09:51;103650.94;;;0.41;100.00
79309;BME280;68767;53.078;7.386;2024-01-11T12:12:18;103656.97;;;0.35;100.00
79309;BME280;68767;53.078;7.386;2024-01-11T12:14:47;103656.66;;;0.52;100.00
79309;BME280;68767;53.078;7.386;2024-01-11T12:17:16;103649.34;;;0.54;100.00
79309;BME280;68767;53.078;7.386;2024-01-11T12:19:43;103638.25;;;0.59;100.00
79309;BME280;68767;53.078;7.386;2024-01-11T12:22:10;103641.34;;;0.63;100.00
79309;BME280;68767;53.078;7.386;2024-01-11T12:24:37;103657.75;;;0.58;100.00
79309;BME280;68767;53.078;7.386;2024-01-11T12:27:04;103645.34;;;0.59;100.00
79309;BME280;68767;53.078;7.386;2024-01-11T12:29:31;103652.63;;;0.56;100.00
79309;BME280;68767;53.078;7.386;2024-01-11T12:32:09;103648.00;;;0.59;100.00
79309;BME280;68767;53.078;7.386;2024-01-11T12:34:40;103639.69;;;0.62;100.00
79309;BME280;68767;53.078;7.386;2024-01-11T12:37:07;103625.84;;;0.60;100.00
79309;BME280;68767;53.078;7.386;2024-01-11T12:39:37;103630.13;;;0.61;100.00
79309;BME280;68767;53.078;7.386;2024-01-11T12:42:04;103632.19;;;0.65;100.00
79309;BME280;68767;53.078;7.386;2024-01-11T12:44:32;103622.28;;;0.67;100.00
79309;BME280;68767;53.078;7.386;2024-01-11T12:47:00;103620.91;;;0.71;100.00